Time;durP1;ratioP1;P1;durP2;ratioP2;P2;SDS_P1;SDS_P2;PMS_P1;PMS_P2;Temp;Humidity;BMP_temperature;BMP_pressure;BME280_temperature;BME280_humidity;BME280_pressure;Samples;Min_cycle;Max_cycle;Signal;HPM_P1;HPM_P2
2023/01/24 00:01:46;;;;;;;66.68;30.50;;;2.50;99.90;;;;;;6254431;23;20495;-86
2023/01/24 00:04:13;;;;;;;53.85;28.75;;;2.40;99.90;;;;;;6231720;23;20168;-88
2023/01/24 00:06:40;;;;;;;65.75;31.02;;;2.50;99.90;;;;;;6256504;23;20199;-87
2023/01/24 00:09:07;;;;;;;52.90;29.80;;;2.40;99.90;;;;;;6255220;23;20193;-87
2023/01/24 00:11:39;;;;;;;62.55;29.08;;;2.60;99.90;;;;;;6228745;23;20238;-87
2023/01/24 00:14:07;;;;;;;59.63;28.92;;;2.60;99.90;;;;;;6237299;23;20204;-89
2023/01/24 00:16:35;;;;;;;53.30;28.05;;;2.60;99.90;;;;;;6216862;22;20231;-90
2023/01/24 00:19:18;;;;;;;48.28;27.00;;;2.60;99.90;;;;;;6238510;23;20220;-89
2023/01/24 00:21:45;;;;;;;53.63;32.55;;;2.50;99.90;;;;;;6262639;23;20241;-86
2023/01/24 00:24:12;;;;;;;65.90;30.45;;;2.40;99.90;;;;;;6226670;23;20176;-88
2023/01/24 00:26:39;;;;;;;80.15;31.38;;;2.40;99.90;;;;;;6256421;23;20186;-85
2023/01/24 00:29:06;;;;;;;62.30;31.35;;;2.40;99.90;;;;;;6251807;23;20212;-89
2023/01/24 00:31:33;;;;;;;72.95;30.60;;;2.40;99.90;;;;;;6231437;23;20192;-84
2023/01/24 00:34:02;;;;;;;64.40;32.65;;;2.40;99.90;;;;;;6238170;23;20220;-90
2023/01/24 00:36:29;;;;;;;59.90;32.53;;;2.30;99.90;;;;;;6229606;23;20481;-90
2023/01/24 00:38:57;;;;;;;67.53;34.00;;;2.40;99.90;;;;;;6253310;23;20240;-86
2023/01/24 00:41:24;;;;;;;63.40;33.83;;;2.30;99.90;;;;;;6229506;23;20193;-87
2023/01/24 00:43:52;;;;;;;68.03;33.33;;;2.30;99.90;;;;;;6256780;23;20190;-89
2023/01/24 00:46:23;;;;;;;69.13;33.30;;;2.40;99.90;;;;;;6224716;23;20185;-91
2023/01/24 00:48:50;;;;;;;67.00;32.63;;;2.40;99.90;;;;;;6252849;23;20204;-87
2023/01/24 00:51:18;;;;;;;86.00;38.63;;;2.40;99.90;;;;;;6251879;23;20224;-88
2023/01/24 00:53:45;;;;;;;65.75;36.00;;;2.40;99.90;;;;;;6255333;23;20176;-86
2023/01/24 00:56:12;;;;;;;67.30;35.75;;;2.40;99.90;;;;;;6224035;23;20196;-91
2023/01/24 00:58:39;;;;;;;65.85;32.40;;;2.40;99.90;;;;;;6194829;23;20181;-89
2023/01/24 01:01:06;;;;;;;60.58;33.80;;;2.40;99.90;;;;;;6195172;23;20185;-86
2023/01/24 01:03:34;;;;;;;66.97;36.22;;;2.40;99.90;;;;;;6197910;23;20203;-87
2023/01/24 01:06:11;;;;;;;62.10;34.00;;;2.40;99.90;;;;;;6220243;23;20197;-89
2023/01/24 01:08:38;;;;;;;79.38;37.10;;;2.40;99.90;;;;;;6221048;23;20211;-88
2023/01/24 01:11:05;;;;;;;65.85;34.15;;;2.40;99.90;;;;;;6221691;23;20227;-88
2023/01/24 01:13:33;;;;;;;73.47;38.00;;;2.30;99.90;;;;;;6194411;23;20657;-86
2023/01/24 01:16:10;;;;;;;87.82;39.97;;;2.40;99.90;;;;;;6220370;23;20183;-87
2023/01/24 01:18:40;;;;;;;72.88;36.83;;;2.50;99.90;;;;;;6234112;22;20214;-88
2023/01/24 01:21:16;;;;;;;67.80;34.40;;;2.40;99.90;;;;;;6225624;23;20178;-86
2023/01/24 01:23:43;;;;;;;79.93;37.55;;;2.60;99.90;;;;;;6252328;23;20161;-89
2023/01/24 01:26:16;;;;;;;73.55;35.55;;;2.50;99.90;;;;;;6224369;23;20215;-88
2023/01/24 01:28:47;;;;;;;73.88;37.55;;;2.40;99.90;;;;;;6252152;23;20357;-86
2023/01/24 01:31:15;;;;;;;86.80;37.15;;;2.40;99.90;;;;;;6225534;23;20191;-87
2023/01/24 01:33:43;;;;;;;73.32;37.08;;;2.40;99.90;;;;;;6228682;23;20188;-87
2023/01/24 01:36:12;;;;;;;64.90;35.90;;;2.40;99.90;;;;;;6255075;23;20223;-86
2023/01/24 01:38:44;;;;;;;70.38;36.75;;;2.40;99.90;;;;;;6251091;23;20407;-84
2023/01/24 01:41:14;;;;;;;73.97;37.40;;;2.40;99.90;;;;;;6250048;23;20480;-86
2023/01/24 01:44:37;;;;;;;75.72;36.08;;;2.70;99.90;;;;;;6256479;22;20165;-88
2023/01/24 01:46:51;;;;;;;80.05;38.38;;;2.50;99.90;;;;;;6263353;23;20187;-89
2023/01/24 01:49:23;;;;;;;91.22;41.50;;;2.50;99.90;;;;;;6237830;23;20197;-86
2023/01/24 01:51:55;;;;;;;69.90;36.40;;;2.40;99.90;;;;;;6253844;23;20184;-86
2023/01/24 01:54:26;;;;;;;69.47;37.92;;;2.60;99.90;;;;;;6229915;23;20183;-90
2023/01/24 01:57:01;;;;;;;82.13;38.53;;;2.50;99.90;;;;;;6226240;23;20208;-90
2023/01/24 01:59:32;;;;;;;68.88;38.95;;;2.50;99.90;;;;;;6228042;23;20237;-86
2023/01/24 02:02:01;;;;;;;66.93;34.00;;;2.50;99.90;;;;;;6227356;23;20469;-88
2023/01/24 02:04:40;;;;;;;65.50;35.15;;;2.60;99.90;;;;;;6264698;22;20455;-89
2023/01/24 02:07:21;;;;;;;66.90;37.10;;;2.50;99.90;;;;;;6259371;23;20180;-89
2023/01/24 02:09:53;;;;;;;74.40;34.58;;;2.70;99.90;;;;;;6261991;22;20472;-90
2023/01/24 02:12:30;;;;;;;68.95;35.97;;;2.50;99.90;;;;;;6230056;23;20242;-87
2023/01/24 02:17:53;;;;;;;67.00;35.65;;;2.30;99.90;;;;;;6252382;23;20594;-88
2023/01/24 02:20:25;;;;;;;77.43;37.08;;;2.40;99.90;;;;;;6224848;23;20164;-88
2023/01/24 02:22:56;;;;;;;62.75;37.65;;;2.40;99.90;;;;;;6249846;23;20194;-90
2023/01/24 02:25:45;;;;;;;65.03;35.05;;;2.50;99.90;;;;;;6222942;23;20538;-86
2023/01/24 02:28:12;;;;;;;67.05;33.78;;;2.60;99.90;;;;;;6249939;23;20208;-87
2023/01/24 02:30:39;;;;;;;68.65;32.08;;;2.70;99.90;;;;;;6227860;23;20198;-88
2023/01/24 02:33:18;;;;;;;75.75;36.40;;;2.60;99.90;;;;;;6255932;23;20357;-89
2023/01/24 02:35:47;;;;;;;60.50;31.83;;;2.50;99.90;;;;;;6252397;23;20244;-89
2023/01/24 02:38:26;;;;;;;73.93;34.10;;;2.60;99.90;;;;;;6253764;23;20174;-88
2023/01/24 02:41:06;;;;;;;64.90;34.63;;;2.50;99.90;;;;;;6226178;23;20190;-89
2023/01/24 02:43:44;;;;;;;69.95;32.47;;;2.50;99.90;;;;;;6253996;23;20184;-88
2023/01/24 02:46:11;;;;;;;75.72;35.25;;;2.50;99.90;;;;;;6223947;23;20182;-90
2023/01/24 02:48:38;;;;;;;62.42;34.17;;;2.60;99.90;;;;;;6223437;23;20205;-85
2023/01/24 02:53:53;;;;;;;63.40;32.85;;;2.70;99.90;;;;;;6249411;23;20177;-87
2023/01/24 02:59:05;;;;;;;59.80;34.20;;;2.90;99.90;;;;;;6248345;23;20180;-86
2023/01/24 03:01:38;;;;;;;63.42;35.80;;;2.70;99.90;;;;;;6223524;23;20185;-85
2023/01/24 03:04:09;;;;;;;62.78;32.30;;;2.60;99.90;;;;;;6248602;23;20239;-87
2023/01/24 03:06:51;;;;;;;53.65;29.55;;;2.80;99.90;;;;;;6225704;23;20180;-86
2023/01/24 03:09:34;;;;;;;59.20;29.77;;;2.80;99.90;;;;;;6250777;23;20194;-86
2023/01/24 03:34:50;;;;;;;61.58;32.20;;;2.60;99.90;;;;;;6250986;23;20204;-87
2023/01/24 03:40:17;;;;;;;56.10;31.83;;;2.50;99.90;;;;;;6254520;23;20180;-89
2023/01/24 03:42:50;;;;;;;54.30;30.77;;;2.60;99.90;;;;;;6251675;23;20174;-85
2023/01/24 03:45:26;;;;;;;55.17;30.13;;;2.60;99.90;;;;;;6269921;22;20149;-87
2023/01/24 03:47:59;;;;;;;64.65;33.90;;;2.70;99.90;;;;;;6269346;22;20228;-87
2023/01/24 03:53:28;;;;;;;57.97;31.30;;;2.70;99.90;;;;;;6269095;22;20238;-88
2023/01/24 03:55:57;;;;;;;60.97;31.52;;;2.60;99.90;;;;;;6267542;22;20179;-86
2023/01/24 03:58:30;;;;;;;61.63;31.67;;;2.50;99.90;;;;;;6234233;23;20194;-88
2023/01/24 04:00:57;;;;;;;55.35;30.55;;;2.50;99.90;;;;;;6261154;22;20211;-87
2023/01/24 04:03:28;;;;;;;64.18;32.10;;;2.60;99.90;;;;;;6253552;23;20206;-86
2023/01/24 04:05:56;;;;;;;61.25;30.15;;;2.60;99.90;;;;;;6225884;23;20374;-85
2023/01/24 04:08:24;;;;;;;61.00;30.60;;;2.50;99.90;;;;;;6254253;23;20206;-88
2023/01/24 04:10:51;;;;;;;61.40;33.58;;;2.50;99.90;;;;;;6256848;23;20248;-87
2023/01/24 04:13:18;;;;;;;54.83;32.47;;;2.50;99.90;;;;;;6252749;23;20639;-85
2023/01/24 04:15:45;;;;;;;73.53;36.08;;;2.50;99.90;;;;;;6234672;22;20314;-89
2023/01/24 04:18:12;;;;;;;71.88;35.63;;;2.60;99.90;;;;;;6226438;22;20209;-87
2023/01/24 04:20:39;;;;;;;73.45;33.55;;;2.70;99.90;;;;;;6227354;23;20178;-88
2023/01/24 04:23:07;;;;;;;58.38;31.63;;;2.60;99.90;;;;;;6228170;23;20178;-90
2023/01/24 04:25:34;;;;;;;58.33;30.30;;;2.50;99.90;;;;;;6228876;23;20180;-86
2023/01/24 04:28:01;;;;;;;60.22;33.33;;;2.50;99.90;;;;;;6226346;23;20582;-88
2023/01/24 04:30:29;;;;;;;56.10;31.17;;;2.40;99.90;;;;;;6233535;23;20191;-89
2023/01/24 04:32:56;;;;;;;67.57;35.63;;;2.40;99.90;;;;;;6231086;23;20212;-89
2023/01/24 04:35:26;;;;;;;70.97;34.25;;;2.50;99.90;;;;;;6233154;23;20402;-91
2023/01/24 04:37:57;;;;;;;62.55;37.33;;;2.60;99.90;;;;;;6224342;23;20182;-89
2023/01/24 04:40:24;;;;;;;66.65;31.23;;;2.60;99.90;;;;;;6220218;23;20245;-91
2023/01/24 04:42:51;;;;;;;63.47;33.58;;;2.60;99.90;;;;;;6225747;23;20190;-87
2023/01/24 04:45:18;;;;;;;55.78;31.05;;;2.70;99.90;;;;;;6220256;23;20255;-87
2023/01/24 04:47:45;;;;;;;50.28;30.38;;;2.70;99.90;;;;;;6226522;23;20231;-86
2023/01/24 04:50:12;;;;;;;52.58;30.83;;;2.60;99.90;;;;;;6220816;23;20642;-86
2023/01/24 04:52:39;;;;;;;63.83;32.17;;;2.70;99.90;;;;;;6223557;23;20185;-88
2023/01/24 04:55:07;;;;;;;67.32;34.70;;;2.70;99.90;;;;;;6237795;23;20259;-88
2023/01/24 04:57:34;;;;;;;53.22;29.88;;;2.60;99.90;;;;;;6238306;23;20188;-88
2023/01/24 05:00:01;;;;;;;55.75;30.55;;;2.80;99.90;;;;;;6235488;23;20174;-85
2023/01/24 05:02:28;;;;;;;55.42;30.63;;;2.70;99.90;;;;;;6233581;23;20271;-87
2023/01/24 05:04:55;;;;;;;60.45;31.02;;;2.70;99.90;;;;;;6237325;23;20161;-89
2023/01/24 05:07:31;;;;;;;65.13;31.35;;;2.70;99.90;;;;;;6236737;23;20189;-84
2023/01/24 05:09:58;;;;;;;62.90;29.67;;;2.70;99.90;;;;;;6236339;23;20239;-87
2023/01/24 05:12:25;;;;;;;55.28;31.30;;;2.70;99.90;;;;;;6235748;23;20210;-88
2023/01/24 05:14:52;;;;;;;55.72;31.67;;;2.50;99.90;;;;;;6236557;23;20181;-87
2023/01/24 05:17:20;;;;;;;64.78;32.85;;;2.80;99.90;;;;;;6239827;23;20193;-87
2023/01/24 05:19:46;;;;;;;67.78;30.27;;;2.50;99.90;;;;;;6267066;22;20159;-87
2023/01/24 05:22:13;;;;;;;64.03;29.73;;;2.60;99.90;;;;;;6241197;22;20168;-89
2023/01/24 05:24:41;;;;;;;62.17;30.60;;;2.60;99.90;;;;;;6268443;22;20192;-84
2023/01/24 05:27:10;;;;;;;47.47;27.95;;;2.60;99.90;;;;;;6270424;22;20261;-87
2023/01/24 05:29:38;;;;;;;57.92;32.22;;;2.60;99.90;;;;;;6260887;23;20531;-88
2023/01/24 05:32:08;;;;;;;58.95;30.83;;;2.60;99.90;;;;;;6258315;23;20201;-88
2023/01/24 05:34:37;;;;;;;61.05;33.38;;;2.70;99.90;;;;;;6257129;23;20250;-84
2023/01/24 05:37:04;;;;;;;69.85;34.20;;;2.60;99.90;;;;;;6258104;23;20192;-85
2023/01/24 05:39:32;;;;;;;59.17;29.63;;;2.60;99.90;;;;;;6260969;23;20182;-86
2023/01/24 05:41:59;;;;;;;52.45;29.73;;;2.60;99.90;;;;;;6231678;23;20190;-84
2023/01/24 05:44:26;;;;;;;63.25;31.85;;;2.60;99.90;;;;;;6255398;23;20230;-86
2023/01/24 05:46:53;;;;;;;49.28;27.15;;;2.60;99.90;;;;;;6253466;23;20239;-86
2023/01/24 05:49:20;;;;;;;52.13;26.27;;;2.60;99.90;;;;;;6253976;23;20220;-86
2023/01/24 05:51:47;;;;;;;58.47;28.10;;;2.50;99.90;;;;;;6228419;23;20248;-84
2023/01/24 05:54:14;;;;;;;54.65;28.02;;;2.50;99.90;;;;;;6226824;23;20192;-84
2023/01/24 05:56:41;;;;;;;64.60;31.35;;;2.60;99.90;;;;;;6254134;23;20177;-85
2023/01/24 05:59:13;;;;;;;58.58;31.30;;;2.70;99.90;;;;;;6251205;23;20182;-85
2023/01/24 06:01:42;;;;;;;64.60;35.33;;;2.70;99.90;;;;;;6251574;23;20358;-87
2023/01/24 06:04:09;;;;;;;60.78;30.63;;;2.60;99.90;;;;;;6250540;23;20185;-85
2023/01/24 06:06:38;;;;;;;55.75;29.20;;;2.70;99.90;;;;;;6249307;23;20185;-83
2023/01/24 06:09:05;;;;;;;57.92;28.70;;;2.70;99.90;;;;;;6249912;23;20214;-86
2023/01/24 06:11:33;;;;;;;52.53;28.33;;;2.70;99.90;;;;;;6251813;23;20229;-85
2023/01/24 06:14:00;;;;;;;53.00;30.10;;;2.70;99.90;;;;;;6224745;23;20203;-84
2023/01/24 06:16:27;;;;;;;56.53;31.45;;;2.80;99.90;;;;;;6249955;23;20376;-85
2023/01/24 06:18:55;;;;;;;59.17;29.70;;;2.70;99.90;;;;;;6249495;23;20207;-84
2023/01/24 06:21:33;;;;;;;62.20;28.90;;;2.70;99.90;;;;;;6250279;23;20175;-86
2023/01/24 06:24:01;;;;;;;51.42;28.52;;;2.80;99.90;;;;;;6226741;23;20343;-86
2023/01/24 06:26:29;;;;;;;50.17;28.55;;;2.80;99.90;;;;;;6251891;23;20199;-87
2023/01/24 06:28:56;;;;;;;59.33;29.52;;;2.90;99.90;;;;;;6223635;23;20275;-86
2023/01/24 06:31:44;;;;;;;49.63;27.10;;;2.70;99.90;;;;;;6249754;23;20222;-84
2023/01/24 06:34:26;;;;;;;70.32;30.85;;;2.70;99.90;;;;;;6249543;23;20191;-84
2023/01/24 06:37:05;;;;;;;58.15;30.58;;;2.60;99.90;;;;;;6222450;23;20499;-82
2023/01/24 06:39:33;;;;;;;55.47;26.80;;;2.60;99.90;;;;;;6249898;23;20176;-85
2023/01/24 06:42:01;;;;;;;56.42;32.85;;;2.60;99.90;;;;;;6252554;23;20183;-85
2023/01/24 06:44:28;;;;;;;54.97;27.67;;;2.60;99.90;;;;;;6263311;23;20233;-84
2023/01/24 06:46:55;;;;;;;55.90;28.45;;;2.60;99.90;;;;;;6253870;23;20206;-85
2023/01/24 06:49:23;;;;;;;51.85;27.60;;;2.60;99.90;;;;;;6257955;23;20207;-85
2023/01/24 06:51:51;;;;;;;54.40;27.88;;;2.60;99.90;;;;;;6262289;23;20186;-85
2023/01/24 06:54:19;;;;;;;46.55;25.20;;;2.80;99.90;;;;;;6263728;23;20185;-82
2023/01/24 06:56:47;;;;;;;62.75;31.77;;;2.70;99.90;;;;;;6259825;23;20176;-81
2023/01/24 06:59:19;;;;;;;48.85;28.15;;;2.60;99.90;;;;;;6255640;23;20187;-80
2023/01/24 07:01:46;;;;;;;59.58;29.88;;;2.60;99.90;;;;;;6254117;23;20192;-83
2023/01/24 07:04:13;;;;;;;59.30;30.13;;;2.60;99.90;;;;;;6258457;23;20180;-83
2023/01/24 07:06:40;;;;;;;54.22;29.92;;;2.70;99.90;;;;;;6252830;23;20175;-82
2023/01/24 07:09:10;;;;;;;56.40;29.08;;;2.60;99.90;;;;;;6251116;23;20209;-83
2023/01/24 07:11:37;;;;;;;58.10;32.00;;;2.60;99.90;;;;;;6224787;23;20180;-81
2023/01/24 07:14:04;;;;;;;60.90;30.52;;;2.60;99.90;;;;;;6225007;23;20674;-82
2023/01/24 07:16:32;;;;;;;57.75;32.78;;;2.70;99.90;;;;;;6251590;23;20534;-83
2023/01/24 07:19:05;;;;;;;52.97;27.77;;;2.70;99.90;;;;;;6255750;23;20508;-86
2023/01/24 07:21:38;;;;;;;59.45;29.52;;;2.60;99.90;;;;;;6251610;23;20206;-83
2023/01/24 07:24:18;;;;;;;57.47;33.20;;;2.70;99.90;;;;;;6252416;23;20365;-83
2023/01/24 07:26:48;;;;;;;55.97;30.73;;;2.70;99.90;;;;;;6252826;23;20168;-83
2023/01/24 07:29:15;;;;;;;50.60;29.38;;;2.70;99.90;;;;;;6251945;23;20204;-83
2023/01/24 07:31:42;;;;;;;56.70;30.40;;;2.70;99.90;;;;;;6251142;23;20373;-83
2023/01/24 07:34:09;;;;;;;62.80;31.50;;;2.80;99.90;;;;;;6222337;23;20598;-84
2023/01/24 07:36:42;;;;;;;51.50;30.38;;;2.80;99.90;;;;;;6225411;23;20191;-84
2023/01/24 07:39:09;;;;;;;51.22;28.95;;;2.80;99.90;;;;;;6225231;23;20199;-84
2023/01/24 07:41:40;;;;;;;55.55;28.95;;;2.70;99.90;;;;;;6250173;23;20213;-86
2023/01/24 07:44:07;;;;;;;55.65;28.92;;;2.90;99.90;;;;;;6250534;23;20231;-85
2023/01/24 07:46:35;;;;;;;47.63;28.95;;;2.90;99.90;;;;;;6250898;23;20182;-88
2023/01/24 07:49:02;;;;;;;57.15;26.63;;;2.90;99.90;;;;;;6226635;23;20401;-83
2023/01/24 07:51:30;;;;;;;56.05;28.85;;;2.90;99.90;;;;;;6249691;23;20187;-85
2023/01/24 07:54:00;;;;;;;61.05;28.65;;;3.10;99.90;;;;;;6250284;23;20365;-83
2023/01/24 07:56:27;;;;;;;67.10;31.73;;;3.10;99.90;;;;;;6250940;23;20189;-84
2023/01/24 07:58:55;;;;;;;66.88;30.80;;;3.10;99.90;;;;;;6223948;23;20544;-84
2023/01/24 08:01:24;;;;;;;59.63;27.60;;;3.00;99.90;;;;;;6250431;23;20184;-83
2023/01/24 08:03:55;;;;;;;58.80;30.77;;;2.90;99.90;;;;;;6250930;23;20195;-84
2023/01/24 08:06:23;;;;;;;54.67;27.13;;;2.90;99.90;;;;;;6223686;23;20553;-86
2023/01/24 08:08:50;;;;;;;52.72;28.05;;;2.90;99.90;;;;;;6251215;23;20182;-86
2023/01/24 08:11:17;;;;;;;65.43;31.02;;;2.80;99.90;;;;;;6226409;23;20191;-85
2023/01/24 08:13:45;;;;;;;62.85;28.23;;;2.80;99.90;;;;;;6202197;23;20266;-88
2023/01/24 08:16:12;;;;;;;59.70;30.55;;;3.00;99.90;;;;;;6227454;23;20408;-85
2023/01/24 08:18:40;;;;;;;56.30;29.10;;;3.10;99.90;;;;;;6252410;23;20185;-85
2023/01/24 08:21:08;;;;;;;53.30;29.08;;;3.10;99.90;;;;;;6225770;23;20169;-87
2023/01/24 08:23:36;;;;;;;55.08;27.65;;;3.00;99.90;;;;;;6226673;23;20177;-86
2023/01/24 08:26:05;;;;;;;42.17;26.35;;;3.10;99.90;;;;;;6226565;23;20575;-87
2023/01/24 08:28:33;;;;;;;55.63;26.77;;;3.10;99.90;;;;;;6251786;23;20372;-88
2023/01/24 08:31:01;;;;;;;53.88;27.92;;;3.10;99.90;;;;;;6252033;23;20192;-86
2023/01/24 08:33:28;;;;;;;58.65;27.20;;;3.20;99.90;;;;;;6228064;23;20216;-85
2023/01/24 08:35:58;;;;;;;52.95;28.73;;;3.20;99.90;;;;;;6263109;22;20189;-89
2023/01/24 08:38:26;;;;;;;49.20;28.67;;;3.10;99.90;;;;;;6268277;22;20196;-89
2023/01/24 08:40:54;;;;;;;56.40;29.27;;;3.20;99.90;;;;;;6249596;22;20209;-88
2023/01/24 08:43:22;;;;;;;54.03;28.63;;;3.30;99.90;;;;;;6261027;23;20185;-87
2023/01/24 08:45:57;;;;;;;62.20;29.80;;;3.40;99.90;;;;;;6260727;22;20207;-87
2023/01/24 08:51:10;;;;;;;53.45;29.65;;;3.40;99.90;;;;;;6258560;22;20208;-90
2023/01/24 08:53:37;;;;;;;59.70;31.30;;;3.40;99.90;;;;;;6260941;22;20204;-91
2023/01/24 08:56:06;;;;;;;51.45;26.50;;;3.40;99.90;;;;;;6231775;23;20177;-87
2023/01/24 08:58:34;;;;;;;47.72;24.83;;;3.60;99.90;;;;;;6236009;22;20173;-89
2023/01/24 09:01:06;;;;;;;51.03;25.90;;;3.50;99.90;;;;;;6233032;23;20185;-86
2023/01/24 09:03:34;;;;;;;61.85;27.48;;;3.50;99.90;;;;;;6232662;23;20173;-88
2023/01/24 09:06:02;;;;;;;50.10;28.75;;;3.70;99.90;;;;;;6249457;22;20231;-89
2023/01/24 09:08:29;;;;;;;55.97;27.65;;;3.80;99.90;;;;;;6260977;22;20192;-90
2023/01/24 09:11:02;;;;;;;49.95;28.15;;;3.70;99.90;;;;;;6243215;22;20213;-90
2023/01/24 09:13:33;;;;;;;51.05;28.83;;;3.70;99.90;;;;;;6215260;22;20229;-89
2023/01/24 09:16:02;;;;;;;49.45;28.75;;;3.90;99.90;;;;;;6263240;22;20169;-88
2023/01/24 09:21:05;;;;;;;50.38;26.30;;;3.90;99.90;;;;;;6248932;22;20201;-86
2023/01/24 09:23:36;;;;;;;49.50;26.90;;;3.90;99.90;;;;;;6231521;23;20477;-86
2023/01/24 09:26:03;;;;;;;46.35;26.50;;;4.00;99.90;;;;;;6236465;23;20186;-87
2023/01/24 09:28:35;;;;;;;46.67;25.63;;;3.90;99.90;;;;;;6214871;23;20281;-89
2023/01/24 09:31:03;;;;;;;46.03;28.33;;;3.80;99.90;;;;;;6210794;22;20380;-90
2023/01/24 09:33:40;;;;;;;48.45;22.00;;;3.80;99.90;;;;;;6252336;22;20542;-90
2023/01/24 09:36:24;;;;;;;46.55;24.23;;;3.80;99.90;;;;;;6216310;23;20189;-88
2023/01/24 09:38:55;;;;;;;52.20;25.80;;;4.00;99.90;;;;;;6220718;22;20201;-91
2023/01/24 09:42:00;;;;;;;56.97;26.48;;;3.80;99.90;;;;;;6195351;22;20209;-89
2023/01/24 09:44:49;;;;;;;55.35;30.58;;;3.70;99.90;;;;;;6203158;22;20231;-90
2023/01/24 09:50:25;;;;;;;51.60;28.60;;;3.80;99.90;;;;;;6238972;22;20222;-88
2023/01/24 09:58:34;;;;;;;57.25;28.20;;;4.10;99.90;;;;;;6250286;22;20247;-89
2023/01/24 10:03:49;;;;;;;51.20;29.20;;;4.00;99.90;;;;;;6250790;22;20198;-90
2023/01/24 10:09:12;;;;;;;49.55;27.27;;;4.40;99.90;;;;;;6214502;22;20201;-91
2023/01/24 10:14:27;;;;;;;52.60;26.90;;;4.40;99.90;;;;;;6226966;22;20202;-89
2023/01/24 10:17:18;;;;;;;50.97;25.98;;;4.40;99.90;;;;;;6241158;22;20217;-90
2023/01/24 10:25:27;;;;;;;46.97;26.77;;;4.60;99.90;;;;;;6213448;22;20213;-89
2023/01/24 10:27:59;;;;;;;47.42;26.10;;;4.50;99.90;;;;;;6237983;23;20170;-90
2023/01/24 10:30:49;;;;;;;49.08;26.08;;;4.50;99.90;;;;;;6251643;22;20261;-89
2023/01/24 10:33:18;;;;;;;42.15;24.48;;;4.90;99.90;;;;;;6231707;23;20197;-89
2023/01/24 10:38:25;;;;;;;49.83;25.50;;;4.90;99.90;;;;;;6234646;22;20208;-89
2023/01/24 10:41:19;;;;;;;36.70;22.17;;;4.80;99.90;;;;;;6242652;22;20233;-89
2023/01/24 10:43:58;;;;;;;46.67;25.25;;;4.60;99.90;;;;;;6201687;23;20196;-91
2023/01/24 10:47:12;;;;;;;47.22;25.92;;;4.40;99.90;;;;;;6143866;23;20204;-91
2023/01/24 10:49:43;;;;;;;47.63;25.35;;;4.40;99.90;;;;;;6190991;23;20191;-88
2023/01/24 10:52:19;;;;;;;43.35;24.42;;;4.60;99.90;;;;;;6196378;23;20213;-88
2023/01/24 10:54:51;;;;;;;44.03;25.38;;;5.00;99.90;;;;;;6200456;23;20186;-88
2023/01/24 10:57:43;;;;;;;44.25;27.35;;;5.20;99.90;;;;;;6201350;23;20179;-89
2023/01/24 11:00:26;;;;;;;47.50;26.98;;;5.30;99.90;;;;;;6195938;23;20175;-89
2023/01/24 11:02:59;;;;;;;42.00;27.67;;;5.30;99.90;;;;;;6222254;23;20200;-88
2023/01/24 11:05:47;;;;;;;48.10;26.45;;;5.30;99.90;;;;;;6185427;23;20192;-87
2023/01/24 11:08:22;;;;;;;46.10;24.98;;;5.40;99.90;;;;;;6200303;23;20175;-89
2023/01/24 11:10:57;;;;;;;43.58;25.52;;;5.40;99.90;;;;;;6214178;23;20238;-90
2023/01/24 11:13:28;;;;;;;37.38;23.73;;;5.50;99.90;;;;;;6178482;23;20190;-88
2023/01/24 11:16:28;;;;;;;45.65;25.23;;;5.60;99.90;;;;;;6230502;23;20168;-90
2023/01/24 11:19:01;;;;;;;43.88;24.95;;;5.60;99.90;;;;;;6232130;23;20194;-90
2023/01/24 11:21:50;;;;;;;39.72;23.70;;;5.60;99.90;;;;;;6213219;23;20164;-92
2023/01/24 11:24:20;;;;;;;39.53;23.52;;;5.60;99.90;;;;;;6212718;23;20184;-89
2023/01/24 11:30:16;;;;;;;41.90;24.75;;;5.60;99.90;;;;;;6218853;23;20253;-89
2023/01/24 11:33:01;;;;;;;42.72;22.38;;;5.40;99.90;;;;;;6233290;23;20175;-88
2023/01/24 11:38:25;;;;;;;39.58;23.40;;;5.40;99.90;;;;;;6171441;23;20165;-91
2023/01/24 11:43:49;;;;;;;48.08;26.05;;;5.40;99.90;;;;;;6221486;23;20236;-91
2023/01/24 12:00:24;;;;;;;47.65;23.42;;;5.50;99.90;;;;;;6180860;23;20176;-90
2023/01/24 12:06:07;;;;;;;48.88;25.67;;;5.30;99.90;;;;;;6210442;23;20148;-92
2023/01/24 12:08:53;;;;;;;40.85;23.60;;;5.30;99.90;;;;;;6210805;23;20171;-90
2023/01/24 12:11:36;;;;;;;45.03;25.58;;;5.20;99.90;;;;;;6183233;23;20211;-91
2023/01/24 12:14:25;;;;;;;48.80;27.23;;;5.30;99.90;;;;;;6210955;23;20480;-91
2023/01/24 12:17:07;;;;;;;44.90;25.23;;;5.40;99.90;;;;;;6199883;23;20218;-91
2023/01/24 12:20:14;;;;;;;44.38;22.45;;;5.30;99.90;;;;;;6214889;23;20164;-89
2023/01/24 12:23:02;;;;;;;36.03;22.10;;;5.30;99.90;;;;;;6231094;23;20190;-88
2023/01/24 12:28:26;;;;;;;39.35;23.15;;;5.30;99.90;;;;;;6229092;23;20203;-90
2023/01/24 12:30:59;;;;;;;39.78;21.48;;;5.30;99.90;;;;;;6233046;23;20211;-89
2023/01/24 12:33:36;;;;;;;44.45;24.48;;;5.30;99.90;;;;;;6231969;23;20450;-90
2023/01/24 12:36:32;;;;;;;36.97;23.63;;;5.30;99.90;;;;;;6220171;23;20223;-89
2023/01/24 12:39:10;;;;;;;42.20;22.75;;;5.30;99.90;;;;;;6207171;23;20180;-90
2023/01/24 12:41:39;;;;;;;36.03;21.48;;;5.30;99.90;;;;;;6231413;23;20167;-89
2023/01/24 12:44:37;;;;;;;37.75;24.33;;;5.30;99.90;;;;;;6203591;23;20466;-89
2023/01/24 12:47:32;;;;;;;42.33;25.83;;;5.40;99.90;;;;;;6231880;23;20179;-90
2023/01/24 12:50:04;;;;;;;50.50;25.52;;;5.30;99.90;;;;;;6206949;23;20189;-89
2023/01/24 12:52:54;;;;;;;52.85;28.10;;;5.50;99.90;;;;;;6205825;23;20175;-89
2023/01/24 12:55:35;;;;;;;50.80;29.02;;;5.40;99.90;;;;;;6232699;23;20163;-89
2023/01/24 12:58:11;;;;;;;41.42;28.77;;;5.40;99.90;;;;;;6204808;23;20189;-89
2023/01/24 13:01:05;;;;;;;44.75;26.48;;;5.20;99.90;;;;;;6234839;23;20227;-89
2023/01/24 13:06:26;;;;;;;46.35;27.55;;;5.10;99.90;;;;;;6202087;23;20209;-91
2023/01/24 13:09:08;;;;;;;45.55;25.65;;;5.00;99.90;;;;;;6202722;23;20231;-90
2023/01/24 13:11:46;;;;;;;55.38;28.27;;;4.90;99.90;;;;;;6197595;23;20262;-89
2023/01/24 13:14:39;;;;;;;53.63;29.52;;;5.10;99.90;;;;;;6198903;23;20188;-92
2023/01/24 13:17:10;;;;;;;46.53;27.30;;;4.90;99.90;;;;;;6204803;23;20192;-91
2023/01/24 13:19:56;;;;;;;41.83;24.40;;;5.00;99.90;;;;;;6191148;23;20211;-90
2023/01/24 13:22:26;;;;;;;45.17;28.58;;;5.00;99.90;;;;;;6184002;23;20224;-90
2023/01/24 13:28:11;;;;;;;45.63;24.17;;;5.00;99.90;;;;;;6220246;23;20217;-89
2023/01/24 13:31:04;;;;;;;51.67;27.60;;;4.90;99.90;;;;;;6234388;23;20195;-89
2023/01/24 13:36:33;;;;;;;46.22;26.25;;;4.70;99.90;;;;;;6197257;23;20218;-91
2023/01/24 13:39:06;;;;;;;49.65;27.73;;;4.60;99.90;;;;;;6207007;23;20459;-90
2023/01/24 13:41:36;;;;;;;58.78;27.60;;;4.50;99.90;;;;;;6175830;23;20268;-91
2023/01/24 13:44:07;;;;;;;51.42;25.33;;;4.60;99.90;;;;;;6198611;23;20218;-91
2023/01/24 13:46:44;;;;;;;54.67;27.23;;;4.70;99.90;;;;;;6200807;23;20180;-91
2023/01/24 13:49:27;;;;;;;53.47;28.40;;;4.70;99.90;;;;;;6195099;23;20178;-89
2023/01/24 13:51:57;;;;;;;48.42;27.83;;;4.70;99.90;;;;;;6196293;23;20427;-90
2023/01/24 13:54:43;;;;;;;60.75;31.98;;;4.80;99.90;;;;;;6210441;23;20258;-89
2023/01/24 13:57:18;;;;;;;47.83;27.77;;;4.70;99.90;;;;;;6211634;23;20219;-90
2023/01/24 14:00:16;;;;;;;51.80;26.73;;;4.60;99.90;;;;;;6232348;23;20549;-87
2023/01/24 14:02:53;;;;;;;50.72;27.23;;;4.80;99.90;;;;;;6203421;23;20170;-90
2023/01/24 14:05:29;;;;;;;50.20;27.38;;;4.80;99.90;;;;;;6239236;23;20167;-88
2023/01/24 14:08:07;;;;;;;53.80;27.20;;;4.80;99.90;;;;;;6208193;23;20255;-89
2023/01/24 14:13:49;;;;;;;44.00;25.92;;;4.70;99.90;;;;;;6217756;23;20206;-89
2023/01/24 14:16:36;;;;;;;49.55;28.88;;;4.50;99.90;;;;;;6236011;23;20167;-89
2023/01/24 14:19:12;;;;;;;39.75;23.77;;;4.60;99.90;;;;;;6214649;23;20195;-90
2023/01/24 14:21:48;;;;;;;48.60;24.35;;;4.50;99.90;;;;;;6210548;23;20167;-90
2023/01/24 14:24:33;;;;;;;46.35;27.55;;;4.60;99.90;;;;;;6204079;23;20199;-91
2023/01/24 14:29:43;;;;;;;43.40;26.13;;;4.60;99.90;;;;;;6190865;23;20201;-89
2023/01/24 14:32:28;;;;;;;45.03;27.13;;;4.60;99.90;;;;;;6206085;23;20194;-90
2023/01/24 14:35:21;;;;;;;49.30;28.60;;;4.70;99.90;;;;;;6206473;23;20186;-88
2023/01/24 14:37:52;;;;;;;49.55;29.05;;;4.60;99.90;;;;;;6236657;23;20163;-90
2023/01/24 14:40:22;;;;;;;53.30;29.27;;;4.60;99.90;;;;;;6170074;23;20267;-89
2023/01/24 14:48:21;;;;;;;57.28;29.23;;;4.40;99.90;;;;;;6211373;23;20222;-89
2023/01/24 14:51:04;;;;;;;52.58;27.10;;;4.40;99.90;;;;;;6207017;23;20187;-90
2023/01/24 14:53:32;;;;;;;49.10;27.98;;;4.40;99.90;;;;;;6210646;23;20183;-89
2023/01/24 14:56:13;;;;;;;51.20;30.27;;;4.60;99.90;;;;;;6237258;23;20170;-90
2023/01/24 14:58:42;;;;;;;55.65;29.17;;;4.40;99.90;;;;;;6233441;23;20172;-88
2023/01/24 15:01:21;;;;;;;54.50;29.85;;;4.40;99.90;;;;;;6236956;23;20199;-89